Time;durP1;ratioP1;P1;durP2;ratioP2;P2;SDS_P1;SDS_P2;PMS_P1;PMS_P2;Temp;Humidity;BMP_temperature;BMP_pressure;BME280_temperature;BME280_humidity;BME280_pressure;Samples;Min_cycle;Max_cycle;Signal;HPM_P1;HPM_P2
2021/09/01 00:01:29;;;;;;;12.05;3.67;;;17.20;79.50;;;;;;5034260;28;20469;-79
2021/09/01 00:03:55;;;;;;;11.70;3.05;;;17.20;79.00;;;;;;5042639;28;20025;-78
2021/09/01 00:06:20;;;;;;;12.80;3.47;;;17.30;79.10;;;;;;5051396;28;20538;-78
2021/09/01 00:08:50;;;;;;;15.13;4.13;;;17.30;78.70;;;;;;5036034;28;20040;-78
2021/09/01 00:11:17;;;;;;;8.00;3.17;;;17.30;78.00;;;;;;5031528;28;20041;-79
2021/09/01 00:13:43;;;;;;;11.00;3.13;;;17.30;77.60;;;;;;5047922;28;20481;-79
2021/09/01 00:16:25;;;;;;;12.52;3.47;;;17.30;77.70;;;;;;5038009;28;20021;-79
2021/09/01 00:18:55;;;;;;;13.90;3.88;;;17.30;78.00;;;;;;5045705;28;20496;-78
2021/09/01 00:21:21;;;;;;;10.27;3.53;;;17.30;78.20;;;;;;5050243;28;20507;-78
2021/09/01 00:23:47;;;;;;;9.20;4.10;;;17.20;77.90;;;;;;5051473;28;20017;-79
2021/09/01 00:26:13;;;;;;;9.63;3.08;;;17.20;77.50;;;;;;5043082;28;20063;-78
2021/09/01 00:28:39;;;;;;;11.75;3.40;;;17.20;77.70;;;;;;5031494;28;20355;-77
2021/09/01 00:31:04;;;;;;;9.10;2.72;;;17.20;78.10;;;;;;5036645;28;20025;-78
2021/09/01 00:33:30;;;;;;;8.60;2.70;;;17.20;78.50;;;;;;5048896;28;20092;-78
2021/09/01 00:35:55;;;;;;;12.73;3.35;;;17.30;79.10;;;;;;5048490;28;20021;-78
2021/09/01 00:38:21;;;;;;;14.82;3.38;;;17.30;78.20;;;;;;5066673;28;20454;-78
2021/09/01 00:40:46;;;;;;;14.40;3.35;;;17.20;77.20;;;;;;5055370;28;20026;-77
2021/09/01 00:43:12;;;;;;;12.10;3.38;;;17.20;77.40;;;;;;5071988;28;20021;-78
2021/09/01 00:45:44;;;;;;;10.93;3.20;;;17.20;77.00;;;;;;5037792;28;20033;-78
2021/09/01 00:48:10;;;;;;;15.30;3.78;;;17.20;77.00;;;;;;5045345;28;20030;-78
2021/09/01 00:50:35;;;;;;;9.85;4.03;;;17.20;77.00;;;;;;5037245;28;20109;-78
2021/09/01 00:53:01;;;;;;;11.70;4.20;;;17.20;76.30;;;;;;5037663;28;20037;-79
2021/09/01 00:55:27;;;;;;;9.80;3.13;;;17.20;76.50;;;;;;5040372;28;20101;-79
2021/09/01 00:57:54;;;;;;;12.23;3.85;;;17.20;77.60;;;;;;5043636;28;20076;-77
2021/09/01 01:03:12;;;;;;;13.50;4.05;;;17.20;76.60;;;;;;5040428;28;20029;-78
2021/09/01 01:05:38;;;;;;;12.73;3.95;;;17.20;76.60;;;;;;5057358;28;20512;-78
2021/09/01 01:08:07;;;;;;;7.93;2.80;;;17.20;76.50;;;;;;5040491;28;20064;-78
2021/09/01 01:10:33;;;;;;;12.88;3.55;;;17.30;76.60;;;;;;5070946;28;20021;-79
2021/09/01 01:12:59;;;;;;;10.05;2.80;;;17.30;76.60;;;;;;5057967;28;20032;-78
2021/09/01 01:15:25;;;;;;;10.65;3.65;;;17.30;76.40;;;;;;5058074;28;20029;-79
2021/09/01 01:17:51;;;;;;;17.17;4.78;;;17.30;76.30;;;;;;5040558;28;20025;-78
2021/09/01 01:20:17;;;;;;;18.85;4.28;;;17.30;76.10;;;;;;5038419;28;20028;-78
2021/09/01 01:22:43;;;;;;;8.73;2.97;;;17.30;76.20;;;;;;5037262;28;20060;-79
2021/09/01 01:25:09;;;;;;;10.85;3.53;;;17.30;76.10;;;;;;5038853;28;20100;-78
2021/09/01 01:27:42;;;;;;;10.68;3.47;;;17.40;76.20;;;;;;5036735;28;20033;-78
2021/09/01 01:30:21;;;;;;;7.22;2.88;;;17.40;76.10;;;;;;5036878;28;20044;-78
2021/09/01 01:32:49;;;;;;;14.20;3.60;;;17.40;76.40;;;;;;5036727;28;20044;-78
2021/09/01 01:35:30;;;;;;;10.85;2.88;;;17.40;76.30;;;;;;5053873;28;20264;-79
2021/09/01 01:38:00;;;;;;;10.65;3.20;;;17.40;76.20;;;;;;5038463;28;20055;-79
2021/09/01 01:40:27;;;;;;;9.30;3.45;;;17.40;76.20;;;;;;5037057;28;20025;-79
2021/09/01 01:42:55;;;;;;;9.57;3.45;;;17.30;76.30;;;;;;5037156;28;20030;-80
2021/09/01 01:45:24;;;;;;;12.23;3.60;;;17.30;76.30;;;;;;5033390;28;20385;-79
2021/09/01 01:47:50;;;;;;;9.88;3.38;;;17.40;76.80;;;;;;5032928;28;20032;-80
2021/09/01 01:50:16;;;;;;;8.45;3.17;;;17.30;76.80;;;;;;5034292;28;20053;-78
2021/09/01 01:52:41;;;;;;;12.63;4.18;;;17.30;76.50;;;;;;5034810;28;20497;-79
2021/09/01 01:55:09;;;;;;;11.05;3.60;;;17.30;76.60;;;;;;5034276;28;20075;-78
2021/09/01 01:57:35;;;;;;;12.93;3.65;;;17.30;76.70;;;;;;5033355;28;20021;-77
2021/09/01 02:00:01;;;;;;;12.68;3.55;;;17.30;76.70;;;;;;5034406;28;20036;-78
2021/09/01 02:02:30;;;;;;;10.27;3.92;;;17.30;76.50;;;;;;5045538;28;20386;-78
2021/09/01 02:04:57;;;;;;;11.23;3.53;;;17.30;76.60;;;;;;5053729;28;20025;-77
2021/09/01 02:07:23;;;;;;;11.43;3.35;;;17.30;76.90;;;;;;5041252;28;20367;-78
2021/09/01 02:09:48;;;;;;;9.32;3.35;;;17.30;77.00;;;;;;5033797;28;20505;-77
2021/09/01 02:12:14;;;;;;;11.45;3.35;;;17.30;77.10;;;;;;5048583;28;20025;-79
2021/09/01 02:14:39;;;;;;;10.50;3.97;;;17.30;77.30;;;;;;5048512;28;20018;-79
2021/09/01 02:17:05;;;;;;;9.10;3.55;;;17.20;77.30;;;;;;5032525;28;20032;-79
2021/09/01 02:19:31;;;;;;;12.35;4.13;;;17.20;77.50;;;;;;5033330;28;20017;-79
2021/09/01 02:21:59;;;;;;;13.68;3.97;;;17.20;77.40;;;;;;5033968;28;20032;-79
2021/09/01 02:24:25;;;;;;;13.77;3.70;;;17.20;77.40;;;;;;5033707;28;20025;-78
2021/09/01 02:26:50;;;;;;;12.40;3.67;;;17.20;77.50;;;;;;5043863;28;20131;-77
2021/09/01 02:29:16;;;;;;;13.30;3.60;;;17.20;77.20;;;;;;5060167;28;20021;-79
2021/09/01 02:31:42;;;;;;;11.48;3.00;;;17.20;77.10;;;;;;5052596;28;20033;-79
2021/09/01 02:34:07;;;;;;;12.70;4.32;;;17.20;77.30;;;;;;5050610;28;20044;-79
2021/09/01 02:36:35;;;;;;;9.93;3.33;;;17.20;77.30;;;;;;5056054;28;20010;-79
2021/09/01 02:39:01;;;;;;;12.27;3.53;;;17.20;77.40;;;;;;5065219;28;20009;-78
2021/09/01 02:41:26;;;;;;;10.23;3.45;;;17.10;77.30;;;;;;5054087;28;20029;-79
2021/09/01 02:43:52;;;;;;;10.02;3.22;;;17.10;77.30;;;;;;5034646;28;20378;-79
2021/09/01 02:46:19;;;;;;;10.43;2.70;;;17.10;77.50;;;;;;5048091;28;20041;-79
2021/09/01 02:48:45;;;;;;;10.15;3.67;;;17.10;77.70;;;;;;5057657;28;20624;-78
2021/09/01 02:51:11;;;;;;;13.68;3.30;;;17.10;78.00;;;;;;5046497;28;20294;-78
2021/09/01 02:53:36;;;;;;;12.13;4.28;;;17.10;77.60;;;;;;5048077;28;20283;-78
2021/09/01 02:56:02;;;;;;;10.27;3.72;;;17.10;77.40;;;;;;5031087;28;20022;-80
2021/09/01 02:58:28;;;;;;;11.73;3.50;;;17.10;77.30;;;;;;5034204;28;20037;-78
2021/09/01 03:00:54;;;;;;;13.07;3.92;;;17.10;77.50;;;;;;5032367;28;20032;-78
2021/09/01 03:03:19;;;;;;;11.63;3.28;;;17.10;77.30;;;;;;5038991;28;20104;-79
2021/09/01 03:05:45;;;;;;;14.88;4.50;;;17.10;77.10;;;;;;5051611;28;20029;-79
2021/09/01 03:08:11;;;;;;;9.82;3.38;;;17.10;77.30;;;;;;5038061;28;20024;-80
2021/09/01 03:10:36;;;;;;;13.77;3.83;;;17.10;77.30;;;;;;5052223;28;20035;-78
2021/09/01 03:13:02;;;;;;;11.60;3.80;;;17.10;77.30;;;;;;5051688;28;20096;-79
2021/09/01 03:15:28;;;;;;;12.00;3.40;;;17.10;77.20;;;;;;5032483;28;20041;-78
2021/09/01 03:17:54;;;;;;;8.63;3.53;;;17.00;77.10;;;;;;5043185;28;20028;-78
2021/09/01 03:20:19;;;;;;;10.32;3.38;;;17.00;77.10;;;;;;5052276;28;20033;-79
2021/09/01 03:22:45;;;;;;;8.38;3.20;;;17.00;77.30;;;;;;5049993;28;20063;-78
2021/09/01 03:25:11;;;;;;;13.85;4.10;;;17.10;77.50;;;;;;5053883;28;20108;-79
2021/09/01 03:27:36;;;;;;;12.48;4.20;;;17.10;77.30;;;;;;5033259;28;20037;-79
2021/09/01 03:30:03;;;;;;;11.93;3.58;;;17.10;77.30;;;;;;5031313;28;20030;-78
2021/09/01 03:32:29;;;;;;;11.45;3.55;;;17.10;77.20;;;;;;5035771;28;20431;-79
2021/09/01 03:34:55;;;;;;;17.10;4.43;;;17.00;77.30;;;;;;5053290;28;20052;-79
2021/09/01 03:37:20;;;;;;;13.85;3.42;;;17.10;77.50;;;;;;5046278;28;20386;-79
2021/09/01 03:39:46;;;;;;;12.15;4.13;;;17.10;77.50;;;;;;5053072;28;20023;-79
2021/09/01 03:42:11;;;;;;;13.43;4.10;;;17.00;77.60;;;;;;5052069;28;20036;-79
2021/09/01 03:44:37;;;;;;;11.85;4.07;;;17.10;77.50;;;;;;5035807;28;20116;-78
2021/09/01 03:47:03;;;;;;;12.18;3.47;;;17.00;77.30;;;;;;5032257;28;20366;-78
2021/09/01 03:49:28;;;;;;;11.93;4.22;;;17.00;77.40;;;;;;5030607;28;20029;-78
2021/09/01 03:51:54;;;;;;;10.43;3.75;;;16.90;77.40;;;;;;5051087;28;20037;-80
2021/09/01 03:54:20;;;;;;;11.45;3.65;;;16.90;77.30;;;;;;5051753;28;20029;-79
2021/09/01 03:56:45;;;;;;;14.00;4.53;;;17.00;77.00;;;;;;5034740;28;20033;-79
2021/09/01 03:59:11;;;;;;;12.75;3.70;;;17.00;76.80;;;;;;5034331;28;20125;-78
2021/09/01 04:01:36;;;;;;;12.52;2.83;;;16.90;76.70;;;;;;5036534;28;20151;-78
2021/09/01 04:04:03;;;;;;;11.30;3.30;;;16.90;77.40;;;;;;5033439;28;20374;-78
2021/09/01 04:06:29;;;;;;;14.43;3.78;;;16.90;76.50;;;;;;5043662;28;20021;-80
2021/09/01 04:08:55;;;;;;;8.07;3.67;;;16.90;75.90;;;;;;5041375;28;20090;-79
2021/09/01 04:11:20;;;;;;;8.13;2.90;;;16.80;75.60;;;;;;5048023;28;20029;-78
2021/09/01 04:13:46;;;;;;;6.45;2.83;;;16.80;75.60;;;;;;5031711;28;20067;-79
2021/09/01 04:16:11;;;;;;;11.68;3.88;;;16.80;75.50;;;;;;5033478;28;20484;-78
2021/09/01 04:18:37;;;;;;;12.20;3.67;;;16.80;75.40;;;;;;5031773;28;20017;-78
2021/09/01 04:21:03;;;;;;;9.65;3.30;;;16.80;75.30;;;;;;5034608;28;20389;-79
2021/09/01 04:23:30;;;;;;;12.95;3.63;;;16.80;75.10;;;;;;5054546;28;20044;-78
2021/09/01 04:25:55;;;;;;;9.80;3.42;;;16.80;75.10;;;;;;5064487;28;20017;-78
2021/09/01 04:28:21;;;;;;;8.52;3.30;;;16.80;74.80;;;;;;5050117;28;20017;-78
2021/09/01 04:30:47;;;;;;;8.18;2.85;;;16.80;74.80;;;;;;5051584;28;20087;-78
2021/09/01 04:33:13;;;;;;;10.73;3.25;;;16.80;74.80;;;;;;5042728;28;20037;-80
2021/09/01 04:35:39;;;;;;;12.00;3.25;;;16.80;74.80;;;;;;5033429;28;20032;-79
2021/09/01 04:38:04;;;;;;;9.75;3.28;;;16.80;74.90;;;;;;5039834;28;20025;-78
2021/09/01 04:40:31;;;;;;;13.95;3.45;;;16.90;74.90;;;;;;5051736;28;20425;-79
2021/09/01 04:42:56;;;;;;;10.95;2.90;;;16.80;74.90;;;;;;5034737;28;20038;-79
2021/09/01 04:45:22;;;;;;;10.55;3.22;;;16.80;75.00;;;;;;5033201;28;20026;-79
2021/09/01 04:47:48;;;;;;;10.38;3.40;;;16.80;75.20;;;;;;5058140;28;20129;-78
2021/09/01 04:50:14;;;;;;;8.45;3.30;;;16.90;75.50;;;;;;5040679;28;20029;-79
2021/09/01 04:52:40;;;;;;;9.80;3.15;;;16.80;75.30;;;;;;5043943;28;20099;-79
2021/09/01 04:55:07;;;;;;;8.70;3.10;;;16.80;75.30;;;;;;5032684;28;20021;-79
2021/09/01 04:57:32;;;;;;;10.57;3.45;;;16.90;75.30;;;;;;5048224;28;20021;-79
2021/09/01 04:59:58;;;;;;;8.45;3.42;;;16.90;75.30;;;;;;5041235;28;20044;-79
2021/09/01 05:02:23;;;;;;;7.97;2.47;;;16.90;75.20;;;;;;5044212;28;20021;-79
2021/09/01 05:04:49;;;;;;;10.52;3.30;;;16.90;75.30;;;;;;5039077;28;20107;-78
2021/09/01 05:07:16;;;;;;;7.55;2.80;;;16.80;75.50;;;;;;5037208;28;20033;-79
2021/09/01 05:09:41;;;;;;;9.82;3.35;;;16.90;75.80;;;;;;5034634;28;20048;-79
2021/09/01 05:12:07;;;;;;;9.52;4.00;;;16.90;75.90;;;;;;5030647;28;20534;-80
2021/09/01 05:14:33;;;;;;;13.15;3.95;;;16.90;75.70;;;;;;5049125;28;20037;-78
2021/09/01 05:16:58;;;;;;;12.18;3.38;;;16.90;75.50;;;;;;5040454;28;20516;-79
2021/09/01 05:19:24;;;;;;;11.07;3.30;;;16.90;75.30;;;;;;5053180;28;20082;-78
2021/09/01 05:21:54;;;;;;;9.38;3.03;;;16.90;75.40;;;;;;5054599;28;20029;-79
2021/09/01 05:24:23;;;;;;;9.43;3.95;;;16.90;75.60;;;;;;5051134;28;20025;-79
2021/09/01 05:26:51;;;;;;;7.78;2.85;;;17.00;76.00;;;;;;5034333;28;20055;-79
2021/09/01 05:29:27;;;;;;;9.43;3.78;;;17.00;76.20;;;;;;5034406;28;20025;-78
2021/09/01 05:31:53;;;;;;;9.98;3.28;;;16.90;76.00;;;;;;5036073;28;20040;-79
2021/09/01 05:34:20;;;;;;;12.63;3.97;;;17.00;76.00;;;;;;5034225;28;20057;-79
2021/09/01 05:36:46;;;;;;;12.23;2.67;;;17.00;76.10;;;;;;5036716;28;20074;-78
2021/09/01 05:39:11;;;;;;;12.40;3.70;;;17.00;76.20;;;;;;5044574;28;20440;-78
2021/09/01 05:41:37;;;;;;;7.75;2.72;;;17.10;76.60;;;;;;5039636;28;20093;-78
2021/09/01 05:44:03;;;;;;;6.82;2.75;;;17.10;76.70;;;;;;5047279;28;20025;-79
2021/09/01 05:46:31;;;;;;;8.77;2.95;;;17.10;76.60;;;;;;5033023;28;20037;-79
2021/09/01 05:48:57;;;;;;;7.95;3.10;;;17.10;76.30;;;;;;5033678;28;20036;-78
2021/09/01 05:51:22;;;;;;;11.65;3.80;;;17.10;75.90;;;;;;5035472;28;20063;-79
2021/09/01 05:53:48;;;;;;;10.80;3.25;;;17.10;75.80;;;;;;5035386;28;20061;-79
2021/09/01 05:56:21;;;;;;;9.27;3.30;;;17.10;76.10;;;;;;5038959;28;20472;-78
2021/09/01 05:58:53;;;;;;;8.45;2.92;;;17.10;75.30;;;;;;5053564;28;20029;-79
2021/09/01 06:01:28;;;;;;;8.05;3.03;;;17.10;75.20;;;;;;5046815;28;20034;-79
2021/09/01 06:03:59;;;;;;;11.10;2.40;;;17.20;75.10;;;;;;5034976;28;20053;-79
2021/09/01 06:06:26;;;;;;;8.48;3.10;;;17.20;75.00;;;;;;5050391;28;20137;-78
2021/09/01 06:08:56;;;;;;;8.48;2.90;;;17.20;75.00;;;;;;5037099;28;20021;-79
2021/09/01 06:11:25;;;;;;;12.57;3.35;;;17.20;74.80;;;;;;5035896;28;20382;-79
2021/09/01 06:13:50;;;;;;;9.07;2.95;;;17.20;74.80;;;;;;5059554;28;20014;-79
2021/09/01 06:16:16;;;;;;;9.63;2.85;;;17.30;74.90;;;;;;5050765;28;20034;-79
2021/09/01 06:18:41;;;;;;;10.18;3.38;;;17.30;74.70;;;;;;5053797;28;20029;-80
2021/09/01 06:21:07;;;;;;;8.55;2.72;;;17.40;74.80;;;;;;5049831;28;20019;-79
2021/09/01 06:23:34;;;;;;;9.48;2.78;;;17.40;74.70;;;;;;5047532;28;20017;-78
2021/09/01 06:26:02;;;;;;;8.80;3.75;;;17.30;75.00;;;;;;5046095;28;20030;-78
2021/09/01 06:28:28;;;;;;;7.25;2.63;;;17.30;75.10;;;;;;5041041;28;20143;-79
2021/09/01 06:30:54;;;;;;;10.77;2.72;;;17.40;75.10;;;;;;5033887;28;20064;-79
2021/09/01 06:33:20;;;;;;;7.65;2.83;;;17.30;75.10;;;;;;5052121;28;20036;-81
2021/09/01 06:35:50;;;;;;;8.27;3.05;;;17.30;74.90;;;;;;5036135;28;20126;-81
2021/09/01 06:38:16;;;;;;;6.68;2.60;;;17.40;75.00;;;;;;5039332;28;20033;-80
2021/09/01 06:40:42;;;;;;;9.15;3.00;;;17.40;74.80;;;;;;5035038;28;20032;-80
2021/09/01 06:43:11;;;;;;;10.98;3.22;;;17.50;74.50;;;;;;5046274;28;20029;-80
2021/09/01 06:45:37;;;;;;;7.43;2.80;;;17.50;74.50;;;;;;5033794;28;20025;-80
2021/09/01 06:48:04;;;;;;;7.82;2.45;;;17.50;74.80;;;;;;5032324;28;20284;-77
2021/09/01 06:50:30;;;;;;;6.97;2.70;;;17.50;74.70;;;;;;5033490;28;20095;-79
2021/09/01 06:52:56;;;;;;;10.77;3.47;;;17.50;74.70;;;;;;5033091;28;20037;-78
2021/09/01 06:55:22;;;;;;;11.32;3.22;;;17.60;74.60;;;;;;5042988;28;20012;-78
2021/09/01 06:57:47;;;;;;;8.35;3.45;;;17.60;74.40;;;;;;5045993;28;20029;-78
2021/09/01 07:00:16;;;;;;;11.10;3.22;;;17.50;74.00;;;;;;5032778;28;20367;-78
2021/09/01 07:02:42;;;;;;;9.23;2.92;;;17.60;73.70;;;;;;5032770;28;20108;-79
2021/09/01 07:05:08;;;;;;;7.72;2.72;;;17.60;73.70;;;;;;5032349;28;20060;-77
2021/09/01 07:07:34;;;;;;;9.45;2.90;;;17.60;74.10;;;;;;5033959;28;20021;-78
2021/09/01 07:10:00;;;;;;;15.02;3.35;;;17.60;74.60;;;;;;5047542;28;20362;-78
2021/09/01 07:12:27;;;;;;;11.10;3.67;;;17.60;73.10;;;;;;5041899;28;20044;-79
2021/09/01 07:14:53;;;;;;;14.80;3.80;;;17.60;72.60;;;;;;5033451;28;20025;-80
2021/09/01 07:17:18;;;;;;;10.75;3.08;;;17.60;72.60;;;;;;5042357;28;20099;-79
2021/09/01 07:19:44;;;;;;;10.50;3.08;;;17.60;72.90;;;;;;5030970;28;20036;-78
2021/09/01 07:22:11;;;;;;;9.48;3.25;;;17.70;72.90;;;;;;5032324;28;20026;-78
2021/09/01 07:24:37;;;;;;;8.88;3.17;;;17.70;72.60;;;;;;5052210;28;20408;-78
2021/09/01 07:27:03;;;;;;;11.00;3.72;;;17.80;72.80;;;;;;5038307;28;20036;-77
2021/09/01 07:29:28;;;;;;;9.57;3.17;;;17.80;72.70;;;;;;5031727;28;20025;-77
2021/09/01 07:31:54;;;;;;;8.10;3.15;;;17.80;72.20;;;;;;5031874;28;20386;-78
2021/09/01 07:34:20;;;;;;;7.72;2.63;;;17.90;72.20;;;;;;5032233;28;20440;-77
2021/09/01 07:36:46;;;;;;;11.48;3.45;;;18.00;71.80;;;;;;5036525;28;20553;-78
2021/09/01 07:39:11;;;;;;;12.38;3.38;;;18.00;71.50;;;;;;5049337;28;20058;-78
2021/09/01 07:41:37;;;;;;;10.52;3.00;;;18.00;71.60;;;;;;5048350;28;20038;-78
2021/09/01 07:44:05;;;;;;;9.80;3.30;;;18.00;72.00;;;;;;5030698;28;20470;-77
2021/09/01 07:46:31;;;;;;;8.38;3.55;;;18.00;72.30;;;;;;5048885;28;20033;-79
2021/09/01 07:49:00;;;;;;;8.52;3.15;;;18.00;72.70;;;;;;5041350;28;20115;-78
2021/09/01 07:51:26;;;;;;;10.55;3.38;;;18.00;72.70;;;;;;5051921;28;20052;-80
2021/09/01 07:53:52;;;;;;;9.18;3.30;;;18.10;72.80;;;;;;5038167;28;20116;-79
2021/09/01 07:56:17;;;;;;;10.27;3.50;;;18.10;72.70;;;;;;5031826;28;20113;-79
2021/09/01 07:58:43;;;;;;;7.10;3.75;;;18.20;72.80;;;;;;5030163;28;20478;-79
2021/09/01 08:01:08;;;;;;;10.90;3.60;;;18.20;72.70;;;;;;5035232;28;20029;-78
2021/09/01 08:03:34;;;;;;;7.63;2.78;;;18.20;72.80;;;;;;5038117;28;20334;-78
2021/09/01 08:06:00;;;;;;;10.63;3.40;;;18.20;72.70;;;;;;5042283;28;20041;-77
2021/09/01 08:08:26;;;;;;;8.18;3.17;;;18.20;72.60;;;;;;5039065;28;20029;-76
2021/09/01 08:10:51;;;;;;;9.45;3.40;;;18.30;72.60;;;;;;5032622;28;20022;-78
2021/09/01 08:13:17;;;;;;;8.68;3.60;;;18.40;72.70;;;;;;5034426;28;20029;-78
2021/09/01 08:15:44;;;;;;;11.32;3.50;;;18.40;72.50;;;;;;5038802;28;20033;-77
2021/09/01 08:18:09;;;;;;;8.82;3.20;;;18.50;72.40;;;;;;5039518;28;20036;-77
2021/09/01 08:20:35;;;;;;;8.77;3.10;;;18.40;71.90;;;;;;5039512;28;20026;-77
2021/09/01 08:23:04;;;;;;;13.40;3.72;;;18.40;72.00;;;;;;5034455;28;20025;-80
2021/09/01 08:25:30;;;;;;;10.50;3.23;;;18.50;71.70;;;;;;5033867;28;20412;-78
2021/09/01 08:27:56;;;;;;;11.27;3.22;;;18.50;71.20;;;;;;5030837;28;20037;-78
2021/09/01 08:30:21;;;;;;;10.38;2.90;;;18.60;70.90;;;;;;5031778;28;20052;-78
2021/09/01 08:32:47;;;;;;;6.45;2.95;;;18.60;70.60;;;;;;5034745;28;20033;-78
2021/09/01 08:35:13;;;;;;;10.70;3.40;;;18.70;70.40;;;;;;5032919;28;20028;-78
2021/09/01 08:37:39;;;;;;;10.70;2.80;;;18.80;70.70;;;;;;5032755;28;20417;-78
2021/09/01 08:40:07;;;;;;;7.93;2.80;;;18.90;69.80;;;;;;5030989;28;20483;-77
2021/09/01 08:42:34;;;;;;;7.43;2.90;;;19.00;69.20;;;;;;5033630;28;20032;-78
2021/09/01 08:45:01;;;;;;;9.40;2.65;;;19.00;69.10;;;;;;5031208;28;20029;-77
2021/09/01 08:47:27;;;;;;;10.95;3.00;;;19.00;68.30;;;;;;5031441;28;20055;-78
2021/09/01 08:49:53;;;;;;;12.85;3.40;;;19.10;68.10;;;;;;5031319;28;20029;-78
2021/09/01 08:52:19;;;;;;;8.88;3.00;;;19.10;68.00;;;;;;5032723;28;20434;-78
2021/09/01 08:54:44;;;;;;;8.98;3.25;;;19.20;68.60;;;;;;5034916;28;20075;-78
2021/09/01 08:57:12;;;;;;;12.23;3.17;;;19.20;67.90;;;;;;5036801;28;20017;-78
2021/09/01 08:59:38;;;;;;;6.50;2.22;;;19.20;68.10;;;;;;5041212;28;20028;-78
2021/09/01 09:02:04;;;;;;;6.13;2.33;;;19.20;68.20;;;;;;5047174;28;20081;-79
2021/09/01 09:04:35;;;;;;;8.70;2.72;;;19.30;68.50;;;;;;5037094;28;20416;-79
2021/09/01 09:07:03;;;;;;;10.02;3.10;;;19.40;68.30;;;;;;5035011;28;20517;-79
2021/09/01 09:09:29;;;;;;;6.78;2.70;;;19.40;67.90;;;;;;5034585;28;20489;-78
2021/09/01 09:11:57;;;;;;;10.02;3.42;;;19.50;67.80;;;;;;5034312;28;20033;-78
2021/09/01 09:14:30;;;;;;;8.63;2.60;;;19.50;68.00;;;;;;5034504;28;20042;-80
2021/09/01 09:17:03;;;;;;;10.32;3.22;;;19.60;69.10;;;;;;5034319;28;20017;-79
2021/09/01 09:19:44;;;;;;;9.90;2.85;;;19.60;68.10;;;;;;5034395;28;20091;-78
2021/09/01 09:22:10;;;;;;;5.97;2.35;;;19.60;66.80;;;;;;5036178;28;20018;-78
2021/09/01 09:24:37;;;;;;;10.82;2.75;;;19.60;66.90;;;;;;5035335;28;20040;-79
2021/09/01 09:27:04;;;;;;;12.00;3.75;;;19.60;67.00;;;;;;5034618;28;20037;-78
2021/09/01 09:29:30;;;;;;;9.35;2.40;;;19.70;66.70;;;;;;5034481;28;20017;-78
2021/09/01 09:32:02;;;;;;;7.55;2.53;;;19.80;66.30;;;;;;5033969;28;20104;-78
2021/09/01 09:34:35;;;;;;;5.25;2.08;;;19.80;67.30;;;;;;5034113;28;20053;-79
2021/09/01 09:37:01;;;;;;;12.27;3.40;;;19.90;68.20;;;;;;5034321;28;20033;-79
2021/09/01 09:39:46;;;;;;;10.85;2.65;;;19.90;67.50;;;;;;5035798;28;20415;-78
2021/09/01 09:42:27;;;;;;;10.40;3.10;;;19.90;67.10;;;;;;5034270;28;20461;-78
2021/09/01 09:44:52;;;;;;;11.43;2.95;;;19.90;66.80;;;;;;5033982;28;20398;-77
2021/09/01 09:47:18;;;;;;;8.70;2.88;;;19.90;66.90;;;;;;5034201;28;20032;-78
2021/09/01 09:49:44;;;;;;;6.80;2.22;;;20.00;67.10;;;;;;5034097;28;20021;-78
2021/09/01 09:52:13;;;;;;;8.80;2.72;;;20.00;67.20;;;;;;5034190;28;20079;-78
2021/09/01 09:54:40;;;;;;;10.80;2.65;;;20.00;66.70;;;;;;5040436;28;20355;-78
2021/09/01 09:57:09;;;;;;;7.47;2.70;;;20.00;65.50;;;;;;5044974;28;20033;-78
2021/09/01 09:59:35;;;;;;;8.82;3.28;;;20.00;65.60;;;;;;5044428;28;20034;-79
2021/09/01 10:02:01;;;;;;;9.07;2.67;;;20.10;65.50;;;;;;5035480;28;20504;-78
2021/09/01 10:04:28;;;;;;;8.27;2.13;;;20.10;65.60;;;;;;5034424;28;20049;-79
2021/09/01 10:06:54;;;;;;;12.63;3.95;;;20.10;65.60;;;;;;5036287;28;20049;-78
2021/09/01 10:09:20;;;;;;;10.55;2.88;;;20.10;65.50;;;;;;5040241;28;20446;-78
2021/09/01 10:11:48;;;;;;;8.45;2.78;;;20.10;65.30;;;;;;5039805;28;20060;-78
2021/09/01 10:14:22;;;;;;;8.98;2.88;;;20.20;65.30;;;;;;5040901;28;20124;-79
2021/09/01 10:17:07;;;;;;;9.23;3.10;;;20.30;65.40;;;;;;5037129;28;20029;-78
2021/09/01 10:19:35;;;;;;;10.50;3.35;;;20.30;64.90;;;;;;5035159;28;20196;-78
2021/09/01 10:22:03;;;;;;;11.90;3.60;;;20.40;64.80;;;;;;5035468;28;20032;-78
2021/09/01 10:24:35;;;;;;;7.13;2.60;;;20.50;65.00;;;;;;5034193;28;20048;-78
2021/09/01 10:27:25;;;;;;;6.88;2.63;;;20.60;66.70;;;;;;5033831;28;20089;-79
2021/09/01 10:29:54;;;;;;;;;;;20.60;67.30;;;;;;5034067;28;20109;-78
2021/09/01 10:32:26;;;;;;;8.38;2.65;;;20.60;66.80;;;;;;5034160;28;19909;-78
2021/09/01 10:35:11;;;;;;;9.25;3.15;;;20.60;66.30;;;;;;5034003;28;20413;-78
2021/09/01 10:37:38;;;;;;;8.27;3.13;;;20.60;65.30;;;;;;5034262;28;20021;-77
2021/09/01 10:40:12;;;;;;;9.35;3.40;;;20.60;65.60;;;;;;5034020;28;20463;-78
2021/09/01 10:42:38;;;;;;;8.52;2.97;;;20.60;65.70;;;;;;5035110;28;20052;-78
2021/09/01 10:45:12;;;;;;;8.68;3.25;;;20.60;65.50;;;;;;5035248;28;20466;-77
2021/09/01 10:48:02;;;;;;;6.65;2.50;;;20.50;65.40;;;;;;5033567;28;20359;-78
2021/09/01 10:50:35;;;;;;;6.15;2.08;;;20.50;66.50;;;;;;5033417;28;20083;-78
2021/09/01 10:53:03;;;;;;;10.60;3.60;;;20.60;68.00;;;;;;5033012;28;20535;-78
2021/09/01 10:55:30;;;;;;;10.35;2.83;;;20.50;65.10;;;;;;5033799;28;20030;-78
2021/09/01 10:58:23;;;;;;;10.35;2.90;;;20.50;65.20;;;;;;5034357;28;20025;-77
2021/09/01 11:00:55;;;;;;;9.25;2.70;;;20.40;66.60;;;;;;5034854;28;20092;-78
2021/09/01 11:03:42;;;;;;;6.90;2.42;;;20.40;67.20;;;;;;5034344;28;20053;-78
2021/09/01 11:06:21;;;;;;;10.30;3.97;;;20.30;68.10;;;;;;5055211;28;20021;-77
2021/09/01 11:08:58;;;;;;;11.68;3.60;;;20.30;66.90;;;;;;5033253;28;20025;-78
2021/09/01 11:11:37;;;;;;;7.63;2.85;;;20.30;67.30;;;;;;5032935;28;20367;-79
2021/09/01 11:14:02;;;;;;;8.77;2.80;;;20.40;66.90;;;;;;5032788;28;20367;-78
2021/09/01 11:16:28;;;;;;;9.13;3.30;;;20.40;66.50;;;;;;5031965;28;20473;-77
2021/09/01 11:19:08;;;;;;;7.75;2.88;;;20.40;65.60;;;;;;5032663;28;20052;-78
2021/09/01 11:21:43;;;;;;;9.93;3.38;;;20.40;65.50;;;;;;5033087;28;20040;-77
2021/09/01 11:24:11;;;;;;;10.07;3.13;;;20.40;65.00;;;;;;5032626;28;20050;-78
2021/09/01 11:26:37;;;;;;;11.05;3.35;;;20.50;64.60;;;;;;5032708;28;20033;-77
2021/09/01 11:29:06;;;;;;;8.68;3.08;;;20.50;64.10;;;;;;5032582;28;20028;-78
2021/09/01 11:31:33;;;;;;;11.57;3.80;;;20.60;64.40;;;;;;5032398;28;20029;-78
2021/09/01 11:34:00;;;;;;;9.93;3.10;;;20.80;64.70;;;;;;5032466;28;20029;-78
2021/09/01 11:36:27;;;;;;;9.52;3.05;;;20.80;63.20;;;;;;5033897;28;20021;-77
2021/09/01 11:38:56;;;;;;;7.40;2.58;;;20.90;63.40;;;;;;5033098;28;20017;-78
2021/09/01 11:41:24;;;;;;;7.63;2.58;;;20.90;64.20;;;;;;5038880;28;20036;-78
2021/09/01 11:44:08;;;;;;;9.45;2.30;;;21.00;65.60;;;;;;5036424;28;20421;-79
2021/09/01 11:46:36;;;;;;;8.88;2.80;;;21.10;64.60;;;;;;5046335;28;20052;-76
2021/09/01 11:49:13;;;;;;;10.10;2.53;;;21.10;63.90;;;;;;5053262;28;20051;-78
2021/09/01 11:51:41;;;;;;;9.20;2.85;;;21.00;63.80;;;;;;5039528;28;20040;-78
2021/09/01 11:54:08;;;;;;;8.43;2.38;;;21.10;67.00;;;;;;5032504;28;20087;-77
2021/09/01 11:56:34;;;;;;;7.00;2.47;;;21.10;65.80;;;;;;5032995;28;20028;-77
2021/09/01 11:59:12;;;;;;;8.63;2.85;;;21.00;66.80;;;;;;5031767;28;20021;-77
2021/09/01 12:01:57;;;;;;;6.85;2.30;;;20.90;65.40;;;;;;5035863;28;20036;-77
2021/09/01 12:04:25;;;;;;;9.50;3.10;;;20.90;67.50;;;;;;5047983;28;20030;-77
2021/09/01 12:06:55;;;;;;;7.47;2.45;;;20.80;67.30;;;;;;5043736;28;20036;-77
2021/09/01 12:09:23;;;;;;;8.65;2.70;;;20.80;71.10;;;;;;5045926;28;20378;-76
2021/09/01 12:11:57;;;;;;;6.10;2.80;;;20.90;70.80;;;;;;5037264;28;20056;-77
2021/09/01 12:14:26;;;;;;;4.88;2.03;;;20.80;71.10;;;;;;5032153;28;20036;-77
2021/09/01 12:16:54;;;;;;;6.70;2.63;;;20.80;71.00;;;;;;5031637;28;20029;-77
2021/09/01 12:19:21;;;;;;;5.25;2.58;;;20.90;71.90;;;;;;5031766;28;20220;-78
2021/09/01 12:21:46;;;;;;;7.00;2.40;;;20.90;72.20;;;;;;5031811;28;20063;-78
2021/09/01 12:24:20;;;;;;;6.88;2.40;;;20.90;71.60;;;;;;5031766;28;20702;-77
2021/09/01 12:27:02;;;;;;;9.32;2.97;;;21.00;71.80;;;;;;5031787;28;20036;-77
2021/09/01 12:29:49;;;;;;;6.13;2.10;;;21.00;68.10;;;;;;5031367;28;20052;-78
2021/09/01 12:32:17;;;;;;;8.30;2.28;;;21.00;70.60;;;;;;5031525;28;20125;-78
2021/09/01 12:34:45;;;;;;;7.18;2.63;;;20.90;72.20;;;;;;5031814;28;20029;-77
2021/09/01 12:37:21;;;;;;;6.70;2.67;;;20.90;72.20;;;;;;5032987;28;20028;-78
2021/09/01 12:39:51;;;;;;;6.38;2.45;;;20.90;72.50;;;;;;5031360;28;20489;-77
2021/09/01 12:42:39;;;;;;;6.68;2.72;;;21.00;72.50;;;;;;5031333;28;20021;-78
2021/09/01 12:45:09;;;;;;;7.97;2.20;;;21.10;71.80;;;;;;5032307;28;20378;-78
2021/09/01 12:47:36;;;;;;;6.53;2.40;;;21.10;71.80;;;;;;5031233;28;20471;-78
2021/09/01 12:50:04;;;;;;;9.27;2.90;;;21.10;71.90;;;;;;5032442;28;20056;-78